createdAt,value
2022-08-03T00:01:36.769Z,62.98
2022-08-03T00:04:06.137Z,63.33
2022-08-03T00:06:36.994Z,61.11
2022-08-03T00:09:06.992Z,63.53
2022-08-03T00:11:34.847Z,64.27
2022-08-03T00:14:02.056Z,64.39
2022-08-03T00:16:29.304Z,64.61
2022-08-03T00:18:56.417Z,61.70
2022-08-03T00:21:23.828Z,59.60
2022-08-03T00:23:52.692Z,61.60
2022-08-03T00:26:21.499Z,61.57
2022-08-03T00:28:49.541Z,63.89
2022-08-03T00:31:20.384Z,59.31
2022-08-03T00:34:04.410Z,60.72
2022-08-03T00:36:31.717Z,62.99
2022-08-03T00:38:58.710Z,62.36
2022-08-03T00:41:25.677Z,62.22
2022-08-03T00:43:52.882Z,61.08
2022-08-03T00:46:22.247Z,63.51
2022-08-03T00:48:53.270Z,62.97
2022-08-03T00:51:21.685Z,59.09
2022-08-03T00:53:49.959Z,58.07
2022-08-03T00:56:18.257Z,58.20
2022-08-03T00:58:46.824Z,61.91
2022-08-03T01:01:14.975Z,59.81
2022-08-03T01:03:42.623Z,61.70
2022-08-03T01:06:34.163Z,62.55
2022-08-03T01:09:43.181Z,64.74
2022-08-03T01:12:33.212Z,62.32
2022-08-03T01:15:46.567Z,61.56
2022-08-03T01:18:22.284Z,62.84
2022-08-03T01:20:56.180Z,63.66
2022-08-03T01:24:02.653Z,65.40
2022-08-03T01:27:05.682Z,62.41
2022-08-03T01:30:08.197Z,62.68
2022-08-03T01:33:00.792Z,61.03
2022-08-03T01:35:36.721Z,62.31
2022-08-03T01:38:22.610Z,65.02
2022-08-03T01:40:53.964Z,63.44
2022-08-03T01:44:28.304Z,64.20
2022-08-03T01:46:17.081Z,63.84
2022-08-03T01:48:46.425Z,64.15
2022-08-03T01:51:16.706Z,64.16
2022-08-03T01:53:44.661Z,63.29
2022-08-03T01:56:13.263Z,61.73
2022-08-03T01:58:42.310Z,61.14
2022-08-03T02:01:10.248Z,61.64
2022-08-03T02:04:00.782Z,60.07
2022-08-03T02:07:01.394Z,63.49
2022-08-03T02:09:23.211Z,63.57
2022-08-03T02:11:52.430Z,58.91
2022-08-03T02:14:21.368Z,58.19
2022-08-03T02:16:50.506Z,58.77
2022-08-03T02:19:19.644Z,60.63
2022-08-03T02:21:57.471Z,61.66
2022-08-03T02:24:30.067Z,60.10
2022-08-03T02:26:59.299Z,61.02
2022-08-03T02:29:39.910Z,60.78
2022-08-03T02:32:14.932Z,59.51
2022-08-03T02:34:46.863Z,60.04
2022-08-03T02:37:18.269Z,61.81
2022-08-03T02:39:47.010Z,61.68
2022-08-03T02:42:16.497Z,60.92
2022-08-03T02:44:48.589Z,61.23
2022-08-03T02:47:21.047Z,60.33
2022-08-03T02:49:52.306Z,58.87
2022-08-03T02:52:28.155Z,59.26
2022-08-03T02:55:04.528Z,61.15
2022-08-03T02:57:34.358Z,60.64
2022-08-03T03:00:02.145Z,62.75
2022-08-03T03:02:30.104Z,63.66
2022-08-03T03:05:53.458Z,62.56
2022-08-03T03:07:53.043Z,62.42
2022-08-03T03:10:22.996Z,63.61
2022-08-03T03:12:57.446Z,64.34
2022-08-03T03:15:27.730Z,62.88
2022-08-03T03:17:56.254Z,62.78
2022-08-03T03:20:29.851Z,62.66
2022-08-03T03:23:01.277Z,64.96
2022-08-03T03:25:32.842Z,65.65
2022-08-03T03:28:06.457Z,64.88
2022-08-03T03:30:34.318Z,66.77
2022-08-03T03:33:02.712Z,67.94
2022-08-03T03:35:30.201Z,67.89
2022-08-03T03:37:57.663Z,64.02
2022-08-03T03:40:25.134Z,63.34
2022-08-03T03:42:52.139Z,64.84
2022-08-03T03:45:21.907Z,65.42
2022-08-03T03:47:49.486Z,64.37
2022-08-03T03:50:19.360Z,65.36
2022-08-03T03:52:46.528Z,68.04
2022-08-03T03:55:18.286Z,67.15
2022-08-03T03:57:46.091Z,68.22
2022-08-03T04:00:16.674Z,67.56
2022-08-03T04:02:44.825Z,65.63
2022-08-03T04:05:31.215Z,65.79
2022-08-03T04:08:24.411Z,63.41
2022-08-03T04:11:09.629Z,62.48
2022-08-03T04:14:02.671Z,67.44
2022-08-03T04:16:35.443Z,64.55
2022-08-03T04:19:09.384Z,62.77
2022-08-03T04:21:43.206Z,62.07
2022-08-03T04:24:13.642Z,64.57
2022-08-03T04:26:43.233Z,62.96
2022-08-03T04:29:13.743Z,62.40
2022-08-03T04:31:42.037Z,67.51
2022-08-03T04:34:09.321Z,65.88
2022-08-03T04:36:44.852Z,65.06
2022-08-03T04:39:18.347Z,62.76
2022-08-03T04:42:06.893Z,65.44
2022-08-03T04:44:40.463Z,63.02
2022-08-03T04:47:08.682Z,63.67
2022-08-03T04:49:38.282Z,62.94
2022-08-03T04:52:08.627Z,62.38
2022-08-03T04:54:50.744Z,59.27
2022-08-03T04:57:22.231Z,57.03
2022-08-03T05:00:01.250Z,54.01
2022-08-03T05:02:29.895Z,53.44
2022-08-03T05:04:57.907Z,50.16
2022-08-03T05:07:25.359Z,49.68
2022-08-03T05:10:01.724Z,45.75
2022-08-03T05:12:32.664Z,45.14
2022-08-03T05:15:01.761Z,44.81
2022-08-03T05:17:29.023Z,41.36
2022-08-03T05:19:56.304Z,41.73
2022-08-03T05:22:24.056Z,41.95
2022-08-03T05:24:51.078Z,40.63
2022-08-03T05:27:21.320Z,40.03
2022-08-03T05:29:52.211Z,39.43
2022-08-03T05:32:19.841Z,38.92
2022-08-03T05:34:47.981Z,36.57
2022-08-03T05:37:15.235Z,37.54
2022-08-03T05:39:43.400Z,40.10
2022-08-03T05:42:10.794Z,35.46
2022-08-03T05:44:38.827Z,38.40
2022-08-03T05:47:06.480Z,38.71
2022-08-03T05:49:33.485Z,38.53
2022-08-03T05:52:12.396Z,39.88
2022-08-03T05:54:56.341Z,39.52
2022-08-03T05:57:26.259Z,39.09
2022-08-03T05:59:55.761Z,38.75
2022-08-03T06:02:27.776Z,44.35
2022-08-03T06:04:55.055Z,46.26
2022-08-03T06:07:22.031Z,48.97
2022-08-03T06:10:35.857Z,51.05
2022-08-03T06:12:37.367Z,47.19
2022-08-03T06:15:06.329Z,48.42
2022-08-03T06:17:52.240Z,49.50
2022-08-03T06:20:21.298Z,49.66
2022-08-03T06:23:01.278Z,47.21
2022-08-03T06:25:29.074Z,47.33
2022-08-03T06:27:56.320Z,48.01
2022-08-03T06:30:23.353Z,48.37
2022-08-03T06:32:51.849Z,48.71
2022-08-03T06:35:20.287Z,48.07
2022-08-03T06:37:51.665Z,49.28
2022-08-03T06:40:29.886Z,49.53
2022-08-03T06:43:02.806Z,48.00
2022-08-03T06:45:31.805Z,49.72
2022-08-03T06:48:13.333Z,49.00
2022-08-03T06:50:42.589Z,46.66
2022-08-03T06:53:10.318Z,46.39
2022-08-03T06:55:45.379Z,47.05
2022-08-03T06:58:12.475Z,46.85
2022-08-03T07:00:39.466Z,47.93
2022-08-03T07:03:06.493Z,46.51
2022-08-03T07:05:35.313Z,46.80
2022-08-03T07:08:03.165Z,47.19
2022-08-03T07:10:30.179Z,46.44
2022-08-03T07:12:57.467Z,47.63
2022-08-03T07:15:54.128Z,45.66
2022-08-03T07:18:12.654Z,46.11
2022-08-03T07:20:40.116Z,46.66
2022-08-03T07:23:07.096Z,46.19
2022-08-03T07:25:34.484Z,46.51
2022-08-03T07:28:03.555Z,46.79
2022-08-03T07:30:30.678Z,46.67
2022-08-03T07:32:57.608Z,44.13
2022-08-03T07:35:25.568Z,45.16
2022-08-03T07:37:55.060Z,43.96
2022-08-03T07:40:22.759Z,43.21
2022-08-03T07:42:52.134Z,44.39
2022-08-03T07:45:23.388Z,43.82
2022-08-03T07:47:53.612Z,42.99
2022-08-03T07:50:22.115Z,43.82
2022-08-03T07:52:52.837Z,43.43
2022-08-03T07:55:22.565Z,42.81
2022-08-03T07:58:22.071Z,42.14
2022-08-03T08:00:53.160Z,43.49
2022-08-03T08:03:21.957Z,43.32
2022-08-03T08:05:49.796Z,43.54
2022-08-03T08:08:16.711Z,42.77
2022-08-03T08:10:58.425Z,43.08
2022-08-03T08:13:26.056Z,42.90
2022-08-03T08:15:53.150Z,42.41
2022-08-03T08:18:20.169Z,42.42
2022-08-03T08:20:47.267Z,43.10
2022-08-03T08:23:42.336Z,44.20
2022-08-03T08:26:10.467Z,44.30
2022-08-03T08:28:37.856Z,44.55
2022-08-03T08:31:04.807Z,43.26
2022-08-03T08:34:01.063Z,42.07
2022-08-03T08:36:20.479Z,42.51
2022-08-03T08:38:47.764Z,42.20
2022-08-03T08:41:15.534Z,41.97
2022-08-03T08:43:42.815Z,42.68
2022-08-03T08:46:22.736Z,42.09
2022-08-03T08:48:51.971Z,42.16
2022-08-03T08:51:21.763Z,41.51
2022-08-03T08:53:52.967Z,41.84
2022-08-03T08:56:22.856Z,41.33
2022-08-03T08:58:54.785Z,41.79
2022-08-03T09:01:22.188Z,41.95
2022-08-03T09:03:50.105Z,41.43
2022-08-03T09:06:17.515Z,41.97
2022-08-03T09:08:44.485Z,41.19
2022-08-03T09:11:12.155Z,40.23
2022-08-03T09:13:39.520Z,40.45
2022-08-03T09:16:19.645Z,40.18
2022-08-03T09:18:50.637Z,41.34
2022-08-03T09:21:31.184Z,40.43
2022-08-03T09:24:02.685Z,40.48
2022-08-03T09:26:31.990Z,40.59
2022-08-03T09:29:14.893Z,40.14
2022-08-03T09:31:45.904Z,40.60
2022-08-03T09:34:16.097Z,38.49
2022-08-03T09:36:51.048Z,39.84
2022-08-03T09:39:30.107Z,38.38
2022-08-03T09:42:14.835Z,38.76
2022-08-03T09:44:49.343Z,38.55
2022-08-03T09:47:30.671Z,39.46
2022-08-03T09:50:09.135Z,37.65
2022-08-03T09:52:51.812Z,38.03
2022-08-03T09:56:35.490Z,38.52
2022-08-03T09:58:14.276Z,38.05
2022-08-03T10:00:59.508Z,37.30
2022-08-03T10:03:30.180Z,37.12
2022-08-03T10:05:59.918Z,37.27
2022-08-03T10:08:27.434Z,38.35
2022-08-03T10:10:55.035Z,36.85
2022-08-03T10:13:23.520Z,37.52
2022-08-03T10:16:23.118Z,37.23
2022-08-03T10:18:37.944Z,36.63
2022-08-03T10:21:10.555Z,37.44
2022-08-03T10:23:40.569Z,36.16
2022-08-03T10:26:08.485Z,36.96
2022-08-03T10:28:44.969Z,37.25
2022-08-03T10:31:14.135Z,37.31
2022-08-03T10:33:50.634Z,38.56
2022-08-03T10:36:23.128Z,37.16
2022-08-03T10:38:56.667Z,36.83
2022-08-03T10:41:35.589Z,37.64
2022-08-03T10:44:17.954Z,36.10
2022-08-03T10:46:51.456Z,36.69
2022-08-03T10:49:33.575Z,36.31
2022-08-03T10:52:02.756Z,35.30
2022-08-03T10:55:07.535Z,36.13
2022-08-03T10:57:48.969Z,35.87
2022-08-03T11:00:20.163Z,35.72
2022-08-03T11:03:09.692Z,35.58
2022-08-03T11:05:44.621Z,35.70
2022-08-03T11:08:23.211Z,35.72
2022-08-03T11:10:53.651Z,34.89
2022-08-03T11:13:24.069Z,34.53
2022-08-03T11:15:59.827Z,35.10
2022-08-03T11:18:29.812Z,35.31
2022-08-03T11:21:00.656Z,34.37
2022-08-03T11:24:03.281Z,34.68
2022-08-03T11:26:33.899Z,34.56
2022-08-03T11:29:30.564Z,33.00
2022-08-03T11:31:57.848Z,33.51
2022-08-03T11:34:26.178Z,32.58
2022-08-03T11:37:24.581Z,33.38
2022-08-03T11:39:55.479Z,33.53
2022-08-03T11:42:22.352Z,34.16
2022-08-03T11:44:51.553Z,33.54
2022-08-03T11:47:21.524Z,33.92
2022-08-03T11:49:51.360Z,33.06
2022-08-03T11:52:19.466Z,33.13
2022-08-03T11:54:56.582Z,32.40
2022-08-03T11:59:18.698Z,32.20
2022-08-03T12:00:32.707Z,33.21
2022-08-03T12:03:09.305Z,31.83
2022-08-03T12:05:56.656Z,30.56
2022-08-03T12:08:33.086Z,30.74
2022-08-03T12:11:04.520Z,29.95
2022-08-03T12:14:43.925Z,29.82
2022-08-03T12:16:32.823Z,29.62
2022-08-03T12:19:04.910Z,30.52
2022-08-03T12:21:32.697Z,29.39
2022-08-03T12:24:05.099Z,29.27
2022-08-03T12:26:58.535Z,28.68
2022-08-03T12:29:27.819Z,28.46
2022-08-03T12:31:55.944Z,28.50
2022-08-03T12:34:23.488Z,28.96
2022-08-03T12:36:57.682Z,29.54
2022-08-03T12:39:30.801Z,29.31
2022-08-03T12:41:58.536Z,28.81
2022-08-03T12:44:36.461Z,28.95
2022-08-03T12:47:06.881Z,29.89
2022-08-03T12:49:53.927Z,29.58
2022-08-03T12:52:22.958Z,30.24
2022-08-03T12:55:01.035Z,29.25
2022-08-03T12:57:42.661Z,29.06
2022-08-03T13:00:19.954Z,29.33
2022-08-03T13:03:39.063Z,29.73
2022-08-03T13:05:57.544Z,28.48
2022-08-03T13:08:25.741Z,28.73
2022-08-03T13:10:53.677Z,29.08
2022-08-03T13:13:39.790Z,28.62
2022-08-03T13:16:06.770Z,27.80
2022-08-03T13:18:34.067Z,27.31
2022-08-03T13:21:02.319Z,27.31
2022-08-03T13:23:29.629Z,27.43
2022-08-03T13:25:56.623Z,27.65
2022-08-03T13:28:23.755Z,27.38
2022-08-03T13:30:50.889Z,26.89
2022-08-03T13:33:18.473Z,27.56
2022-08-03T13:35:45.516Z,26.23
2022-08-03T13:38:12.747Z,26.80
2022-08-03T13:40:43.525Z,26.15
2022-08-03T13:43:13.570Z,26.67
2022-08-03T13:45:40.593Z,26.60
2022-08-03T13:48:07.831Z,27.13
2022-08-03T13:50:37.572Z,26.36
2022-08-03T13:53:07.233Z,26.27
2022-08-03T13:55:34.228Z,26.53
2022-08-03T13:58:07.298Z,26.76
2022-08-03T14:00:35.223Z,26.47
2022-08-03T14:03:10.794Z,26.42
2022-08-03T14:05:41.225Z,26.17
2022-08-03T14:08:09.233Z,26.14
2022-08-03T14:10:41.949Z,25.97
2022-08-03T14:13:16.682Z,25.84
2022-08-03T14:15:49.946Z,26.68
2022-08-03T14:18:28.404Z,26.34
2022-08-03T14:21:02.006Z,26.64
2022-08-03T14:23:33.723Z,26.25
2022-08-03T14:26:01.124Z,26.14
2022-08-03T14:28:29.612Z,26.30
2022-08-03T14:30:56.892Z,26.65
2022-08-03T14:33:24.382Z,26.40
2022-08-03T14:35:53.467Z,25.93
2022-08-03T14:38:21.684Z,26.30
2022-08-03T14:40:49.238Z,26.26
2022-08-03T14:43:23.461Z,26.62
2022-08-03T14:45:53.495Z,26.15
2022-08-03T14:50:30.174Z,25.57
2022-08-03T14:51:09.395Z,26.11
2022-08-03T14:53:36.465Z,26.38
2022-08-03T14:56:07.941Z,25.64
2022-08-03T14:58:37.014Z,25.88
2022-08-03T15:01:04.198Z,25.63
2022-08-03T15:03:51.242Z,26.28
2022-08-03T15:06:18.432Z,26.21
2022-08-03T15:09:00.554Z,26.43
2022-08-03T15:11:33.483Z,25.74
2022-08-03T15:14:00.471Z,25.92
2022-08-03T15:16:29.861Z,25.95
2022-08-03T15:18:57.075Z,25.72
2022-08-03T15:21:46.685Z,24.98
2022-08-03T15:24:13.111Z,25.95
2022-08-03T15:26:41.781Z,25.04
2022-08-03T15:29:08.927Z,24.26
2022-08-03T15:31:56.012Z,25.31
2022-08-03T15:34:23.072Z,25.92
2022-08-03T15:36:50.761Z,25.62
2022-08-03T15:39:19.436Z,25.69
2022-08-03T15:41:46.466Z,25.46
2022-08-03T15:44:14.002Z,26.18
2022-08-03T15:46:41.354Z,25.67
2022-08-03T15:49:08.328Z,25.56
2022-08-03T15:51:36.101Z,25.15
2022-08-03T15:54:06.819Z,25.60
2022-08-03T15:56:33.893Z,25.35
2022-08-03T15:59:12.176Z,24.97
2022-08-03T16:01:41.092Z,25.07
2022-08-03T16:04:08.304Z,25.31
2022-08-03T16:06:36.559Z,24.75
2022-08-03T16:09:23.628Z,24.77
2022-08-03T16:11:55.609Z,24.80
2022-08-03T16:14:34.371Z,24.41
2022-08-03T16:17:05.478Z,24.27
2022-08-03T16:19:32.730Z,24.70
2022-08-03T16:22:00.866Z,24.75
2022-08-03T16:24:28.379Z,24.71
2022-08-03T16:26:56.611Z,24.18
2022-08-03T16:29:24.236Z,24.34
2022-08-03T16:31:53.158Z,24.24
2022-08-03T16:34:21.173Z,23.88
2022-08-03T16:36:49.462Z,24.34
2022-08-03T16:39:17.930Z,25.32
2022-08-03T16:41:54.176Z,25.07
2022-08-03T16:44:30.629Z,24.87
2022-08-03T16:46:59.280Z,24.41
2022-08-03T16:49:55.873Z,24.91
2022-08-03T16:52:13.974Z,24.98
2022-08-03T16:54:44.440Z,25.33
2022-08-03T16:57:30.050Z,25.46
2022-08-03T17:00:11.947Z,25.05
2022-08-03T17:02:48.352Z,25.45
2022-08-03T17:05:15.816Z,26.10
2022-08-03T17:07:50.656Z,26.33
2022-08-03T17:10:26.954Z,27.33
2022-08-03T17:12:54.721Z,26.07
2022-08-03T17:15:38.193Z,26.50
2022-08-03T17:18:13.243Z,26.31
2022-08-03T17:20:42.678Z,26.13
2022-08-03T17:23:45.268Z,25.94
2022-08-03T17:26:21.593Z,26.55
2022-08-03T17:28:57.706Z,26.33
2022-08-03T17:31:31.619Z,26.36
2022-08-03T17:34:04.637Z,26.06
2022-08-03T17:37:02.839Z,26.94
2022-08-03T17:39:48.400Z,27.18
2022-08-03T17:42:30.023Z,28.46
2022-08-03T17:45:01.783Z,27.70
2022-08-03T17:47:41.906Z,27.77
2022-08-03T17:50:25.100Z,28.43
2022-08-03T17:53:15.515Z,29.33
2022-08-03T17:56:45.727Z,30.22
2022-08-03T17:59:50.892Z,29.46
2022-08-03T18:03:10.950Z,29.58
2022-08-03T18:06:10.440Z,29.67
2022-08-03T18:08:34.203Z,29.35
2022-08-03T18:11:14.543Z,29.83
2022-08-03T18:14:17.193Z,29.47
2022-08-03T18:16:52.321Z,29.90
2022-08-03T18:19:21.720Z,30.62
2022-08-03T18:22:09.968Z,31.00
2022-08-03T18:24:38.243Z,31.71
2022-08-03T18:27:08.171Z,32.48
2022-08-03T18:29:37.259Z,32.68
2022-08-03T18:32:12.937Z,33.31
2022-08-03T18:34:53.306Z,33.69
2022-08-03T18:37:25.734Z,34.18
2022-08-03T18:39:57.874Z,33.57
2022-08-03T18:42:26.932Z,34.00
2022-08-03T18:44:56.250Z,33.77
2022-08-03T18:47:51.639Z,33.27
2022-08-03T18:50:33.964Z,33.55
2022-08-03T18:54:02.697Z,34.45
2022-08-03T18:57:05.291Z,33.91
2022-08-03T19:00:02.886Z,34.20
2022-08-03T19:02:50.148Z,36.93
2022-08-03T19:05:23.309Z,37.64
2022-08-03T19:08:26.007Z,38.12
2022-08-03T19:11:01.171Z,39.84
2022-08-03T19:13:50.435Z,39.57
2022-08-03T19:16:39.444Z,39.01
2022-08-03T19:19:14.430Z,40.33
2022-08-03T19:21:45.894Z,39.84
2022-08-03T19:24:19.874Z,39.38
2022-08-03T19:26:53.284Z,38.15
2022-08-03T19:29:24.506Z,38.67
2022-08-03T19:32:20.923Z,38.76
2022-08-03T19:34:50.229Z,37.59
2022-08-03T19:37:22.084Z,37.89
2022-08-03T19:39:56.543Z,37.41
2022-08-03T19:42:34.522Z,37.53
2022-08-03T19:45:11.461Z,39.04
2022-08-03T19:48:08.043Z,39.59
2022-08-03T19:50:38.135Z,38.80
2022-08-03T19:53:14.252Z,38.95
2022-08-03T19:55:48.842Z,40.08
2022-08-03T19:58:28.444Z,38.85
2022-08-03T20:00:56.577Z,39.83
2022-08-03T20:03:28.240Z,39.37
2022-08-03T20:06:12.189Z,40.37
2022-08-03T20:08:44.572Z,40.30
2022-08-03T20:11:11.866Z,41.75
2022-08-03T20:13:39.341Z,42.26
2022-08-03T20:16:06.544Z,42.78
2022-08-03T20:18:39.252Z,43.22
2022-08-03T20:21:15.167Z,42.34
2022-08-03T20:24:01.882Z,43.12
2022-08-03T20:26:31.862Z,42.76
2022-08-03T20:29:09.018Z,42.16
2022-08-03T20:31:37.689Z,42.90
2022-08-03T20:34:06.774Z,42.33
2022-08-03T20:36:34.241Z,42.28
2022-08-03T20:39:02.357Z,42.61
2022-08-03T20:41:35.522Z,43.36
2022-08-03T20:44:04.409Z,43.19
2022-08-03T20:46:44.074Z,44.25
2022-08-03T20:49:21.276Z,43.73
2022-08-03T20:51:53.086Z,44.56
2022-08-03T20:54:29.526Z,44.72
2022-08-03T20:57:04.293Z,44.53
2022-08-03T20:59:50.420Z,45.93
2022-08-03T21:02:29.563Z,47.67
2022-08-03T21:05:03.537Z,47.05
2022-08-03T21:10:33.668Z,50.51
2022-08-03T21:13:08.030Z,48.58
2022-08-03T21:13:18.111Z,51.77
2022-08-03T21:16:06.045Z,49.73
2022-08-03T21:18:43.496Z,49.18
2022-08-03T21:21:13.745Z,49.79
2022-08-03T21:23:47.966Z,49.23
2022-08-03T21:26:22.818Z,51.87
2022-08-03T21:28:52.346Z,48.45
2022-08-03T21:31:23.759Z,47.54
2022-08-03T21:33:59.684Z,47.62
2022-08-03T21:36:30.903Z,50.72
2022-08-03T21:38:59.578Z,48.48
2022-08-03T21:41:32.361Z,49.34
2022-08-03T21:44:00.973Z,49.11
2022-08-03T21:46:35.193Z,47.61
2022-08-03T21:50:07.970Z,48.63
2022-08-03T21:51:57.512Z,48.63
2022-08-03T21:54:33.639Z,48.04
2022-08-03T21:57:05.958Z,48.72
2022-08-03T21:59:38.108Z,47.57
2022-08-03T22:02:13.850Z,47.11
2022-08-03T22:04:56.314Z,47.14
2022-08-03T22:07:27.430Z,45.42
2022-08-03T22:09:56.332Z,45.76
2022-08-03T22:12:26.969Z,47.07
2022-08-03T22:15:01.075Z,45.71
2022-08-03T22:17:56.056Z,46.53
2022-08-03T22:20:22.904Z,48.69
2022-08-03T22:22:56.076Z,48.55
2022-08-03T22:25:30.655Z,48.19
2022-08-03T22:28:04.636Z,48.96
2022-08-03T22:30:33.173Z,48.03
2022-08-03T22:33:03.525Z,47.57
2022-08-03T22:35:47.704Z,48.34
2022-08-03T22:38:18.985Z,48.81
2022-08-03T22:40:50.792Z,49.66
2022-08-03T22:43:17.957Z,50.42
2022-08-03T22:46:09.248Z,49.77
2022-08-03T22:48:37.167Z,49.49
2022-08-03T22:51:08.689Z,50.72
2022-08-03T22:53:36.481Z,53.01
2022-08-03T22:56:04.147Z,54.98
2022-08-03T22:58:31.126Z,51.69
2022-08-03T23:01:07.955Z,51.16
2022-08-03T23:03:58.772Z,53.78
2022-08-03T23:06:35.829Z,54.65
2022-08-03T23:09:11.095Z,56.57
2022-08-03T23:11:45.317Z,55.98
2022-08-03T23:14:21.912Z,54.29
2022-08-03T23:16:51.153Z,55.81
2022-08-03T23:19:25.145Z,59.24
2022-08-03T23:22:05.702Z,58.05
2022-08-03T23:24:36.899Z,55.04
2022-08-03T23:27:06.579Z,55.03
2022-08-03T23:29:37.233Z,55.41
2022-08-03T23:32:06.347Z,57.60
2022-08-03T23:34:52.818Z,55.73
2022-08-03T23:37:20.747Z,54.63
2022-08-03T23:39:49.051Z,52.75
2022-08-03T23:42:19.874Z,51.09
2022-08-03T23:44:52.905Z,54.22
2022-08-03T23:47:20.299Z,54.18
2022-08-03T23:49:47.672Z,53.98
2022-08-03T23:52:25.411Z,53.94
2022-08-03T23:55:17.187Z,52.49
2022-08-03T23:58:17.885Z,51.14
